sensor_id;sensor_type;location;lat;lon;timestamp;temperature;humidity
54946;DHT22;40846;44.788;20.486;2022-11-27T00:01:23;154.10;2252.80
54946;DHT22;40846;44.788;20.486;2022-11-27T00:03:52;154.20;2252.80
54946;DHT22;40846;44.788;20.486;2022-11-27T00:06:20;154.20;2252.80
54946;DHT22;40846;44.788;20.486;2022-11-27T00:08:46;154.30;2252.80
54946;DHT22;40846;44.788;20.486;2022-11-27T00:11:18;154.20;2252.80
54946;DHT22;40846;44.788;20.486;2022-11-27T00:13:45;154.30;2252.80
54946;DHT22;40846;44.788;20.486;2022-11-27T00:16:12;154.20;2252.80
54946;DHT22;40846;44.788;20.486;2022-11-27T00:18:39;154.10;2252.80
54946;DHT22;40846;44.788;20.486;2022-11-27T00:21:06;154.30;2252.80
54946;DHT22;40846;44.788;20.486;2022-11-27T00:23:33;154.40;2252.80
54946;DHT22;40846;44.788;20.486;2022-11-27T00:25:59;179.20;2252.80
54946;DHT22;40846;44.788;20.486;2022-11-27T00:28:25;154.50;2252.80
54946;DHT22;40846;44.788;20.486;2022-11-27T00:30:51;154.50;2252.80
54946;DHT22;40846;44.788;20.486;2022-11-27T00:33:16;179.20;2252.80
54946;DHT22;40846;44.788;20.486;2022-11-27T00:35:42;179.60;2252.80
54946;DHT22;40846;44.788;20.486;2022-11-27T00:38:08;179.30;2252.80
54946;DHT22;40846;44.788;20.486;2022-11-27T00:40:34;179.30;2252.80
54946;DHT22;40846;44.788;20.486;2022-11-27T00:43:00;179.50;2252.80
54946;DHT22;40846;44.788;20.486;2022-11-27T00:45:26;179.30;2252.80
54946;DHT22;40846;44.788;20.486;2022-11-27T00:47:52;179.30;2252.80
54946;DHT22;40846;44.788;20.486;2022-11-27T00:50:18;179.20;2252.80
54946;DHT22;40846;44.788;20.486;2022-11-27T00:52:44;179.20;2252.80
54946;DHT22;40846;44.788;20.486;2022-11-27T00:55:10;179.30;2252.80
54946;DHT22;40846;44.788;20.486;2022-11-27T00:57:36;179.40;2252.80
54946;DHT22;40846;44.788;20.486;2022-11-27T01:00:04;179.50;2252.80
54946;DHT22;40846;44.788;20.486;2022-11-27T01:02:30;179.30;2252.80
54946;DHT22;40846;44.788;20.486;2022-11-27T01:04:55;179.30;2252.80
54946;DHT22;40846;44.788;20.486;2022-11-27T01:07:21;179.20;2252.80
54946;DHT22;40846;44.788;20.486;2022-11-27T01:09:47;154.50;2252.80
54946;DHT22;40846;44.788;20.486;2022-11-27T01:12:12;154.50;2252.80
54946;DHT22;40846;44.788;20.486;2022-11-27T01:14:38;154.50;2252.80
54946;DHT22;40846;44.788;20.486;2022-11-27T01:17:04;154.50;2252.80
54946;DHT22;40846;44.788;20.486;2022-11-27T01:19:30;154.40;2252.80
54946;DHT22;40846;44.788;20.486;2022-11-27T01:21:55;179.20;2252.80
54946;DHT22;40846;44.788;20.486;2022-11-27T01:24:21;154.40;2252.80
54946;DHT22;40846;44.788;20.486;2022-11-27T01:26:47;154.50;2252.80
54946;DHT22;40846;44.788;20.486;2022-11-27T01:29:13;154.40;2252.80
54946;DHT22;40846;44.788;20.486;2022-11-27T01:31:39;154.40;2252.80
54946;DHT22;40846;44.788;20.486;2022-11-27T01:34:07;154.50;2252.80
54946;DHT22;40846;44.788;20.486;2022-11-27T01:36:33;154.40;2252.80
54946;DHT22;40846;44.788;20.486;2022-11-27T01:39:00;154.50;2252.80
54946;DHT22;40846;44.788;20.486;2022-11-27T01:41:29;154.40;2252.80
54946;DHT22;40846;44.788;20.486;2022-11-27T01:44:01;154.50;2252.80
54946;DHT22;40846;44.788;20.486;2022-11-27T01:46:42;154.50;2252.80
54946;DHT22;40846;44.788;20.486;2022-11-27T01:49:14;154.40;2252.80
54946;DHT22;40846;44.788;20.486;2022-11-27T01:51:55;154.40;2252.80
54946;DHT22;40846;44.788;20.486;2022-11-27T01:54:28;154.40;2252.80
54946;DHT22;40846;44.788;20.486;2022-11-27T01:57:00;154.40;2252.80
54946;DHT22;40846;44.788;20.486;2022-11-27T01:59:28;154.30;2252.80
54946;DHT22;40846;44.788;20.486;2022-11-27T02:01:53;154.50;2252.80
54946;DHT22;40846;44.788;20.486;2022-11-27T02:04:19;154.50;2252.80
54946;DHT22;40846;44.788;20.486;2022-11-27T02:06:45;154.50;2252.80
54946;DHT22;40846;44.788;20.486;2022-11-27T02:09:11;154.50;2252.80
54946;DHT22;40846;44.788;20.486;2022-11-27T02:17:20;179.20;2252.80
54946;DHT22;40846;44.788;20.486;2022-11-27T02:30:49;179.20;2252.80
54946;DHT22;40846;44.788;20.486;2022-11-27T02:33:19;154.50;2252.80
54946;DHT22;40846;44.788;20.486;2022-11-27T02:35:58;154.40;2252.80
54946;DHT22;40846;44.788;20.486;2022-11-27T02:38:31;154.50;2252.80
54946;DHT22;40846;44.788;20.486;2022-11-27T02:43:32;154.50;2252.80
54946;DHT22;40846;44.788;20.486;2022-11-27T02:46:00;154.50;2252.80
54946;DHT22;40846;44.788;20.486;2022-11-27T02:48:34;154.50;2252.80
54946;DHT22;40846;44.788;20.486;2022-11-27T02:51:03;154.50;2252.80
54946;DHT22;40846;44.788;20.486;2022-11-27T02:53:38;154.50;2252.80
54946;DHT22;40846;44.788;20.486;2022-11-27T02:56:10;154.50;2252.80
54946;DHT22;40846;44.788;20.486;2022-11-27T02:58:37;154.40;2252.80
54946;DHT22;40846;44.788;20.486;2022-11-27T03:31:16;179.50;2252.80
54946;DHT22;40846;44.788;20.486;2022-11-27T03:33:42;179.40;2252.80
54946;DHT22;40846;44.788;20.486;2022-11-27T03:36:13;179.20;2252.80
54946;DHT22;40846;44.788;20.486;2022-11-27T03:38:40;179.20;2252.80
54946;DHT22;40846;44.788;20.486;2022-11-27T03:52:26;179.50;2252.80
54946;DHT22;40846;44.788;20.486;2022-11-27T03:57:46;179.30;2252.80
54946;DHT22;40846;44.788;20.486;2022-11-27T04:00:15;179.30;2252.80
54946;DHT22;40846;44.788;20.486;2022-11-27T04:02:48;154.50;2252.80
54946;DHT22;40846;44.788;20.486;2022-11-27T04:05:15;154.40;2252.80
54946;DHT22;40846;44.788;20.486;2022-11-27T04:07:41;154.40;2252.80
54946;DHT22;40846;44.788;20.486;2022-11-27T04:10:07;154.40;2252.80
54946;DHT22;40846;44.788;20.486;2022-11-27T04:12:33;154.40;2252.80
54946;DHT22;40846;44.788;20.486;2022-11-27T04:14:58;154.30;2252.80
54946;DHT22;40846;44.788;20.486;2022-11-27T04:17:25;154.20;2252.80
54946;DHT22;40846;44.788;20.486;2022-11-27T04:19:51;154.30;2252.80
54946;DHT22;40846;44.788;20.486;2022-11-27T04:22:16;154.30;2252.80
54946;DHT22;40846;44.788;20.486;2022-11-27T04:24:42;154.40;2252.80
54946;DHT22;40846;44.788;20.486;2022-11-27T04:27:08;154.40;2252.80
54946;DHT22;40846;44.788;20.486;2022-11-27T04:29:34;179.20;2252.80
54946;DHT22;40846;44.788;20.486;2022-11-27T04:32:01;154.50;2252.80
54946;DHT22;40846;44.788;20.486;2022-11-27T04:34:27;154.40;2252.80
54946;DHT22;40846;44.788;20.486;2022-11-27T04:36:53;154.50;2252.80
54946;DHT22;40846;44.788;20.486;2022-11-27T04:39:18;179.20;2252.80
54946;DHT22;40846;44.788;20.486;2022-11-27T04:41:44;179.20;2252.80
54946;DHT22;40846;44.788;20.486;2022-11-27T04:44:11;179.20;2252.80
54946;DHT22;40846;44.788;20.486;2022-11-27T04:46:37;154.50;2252.80
54946;DHT22;40846;44.788;20.486;2022-11-27T04:49:03;179.20;2252.80
54946;DHT22;40846;44.788;20.486;2022-11-27T04:51:29;179.20;2252.80
54946;DHT22;40846;44.788;20.486;2022-11-27T04:53:55;179.20;2252.80
54946;DHT22;40846;44.788;20.486;2022-11-27T04:56:21;179.30;2252.80
54946;DHT22;40846;44.788;20.486;2022-11-27T04:58:46;179.20;2252.80
54946;DHT22;40846;44.788;20.486;2022-11-27T05:01:13;154.50;2252.80
54946;DHT22;40846;44.788;20.486;2022-11-27T05:03:38;154.50;2252.80
54946;DHT22;40846;44.788;20.486;2022-11-27T05:06:04;154.50;2252.80
54946;DHT22;40846;44.788;20.486;2022-11-27T05:08:31;179.20;2252.80
54946;DHT22;40846;44.788;20.486;2022-11-27T05:11:05;179.20;2252.80
54946;DHT22;40846;44.788;20.486;2022-11-27T05:13:30;179.30;2252.80
54946;DHT22;40846;44.788;20.486;2022-11-27T05:15:56;179.40;2252.80
54946;DHT22;40846;44.788;20.486;2022-11-27T05:18:23;179.20;2252.80
54946;DHT22;40846;44.788;20.486;2022-11-27T05:20:56;154.50;2252.80
54946;DHT22;40846;44.788;20.486;2022-11-27T05:23:22;179.20;2252.80
54946;DHT22;40846;44.788;20.486;2022-11-27T05:25:48;179.30;2252.80
54946;DHT22;40846;44.788;20.486;2022-11-27T05:28:14;179.30;2252.80
54946;DHT22;40846;44.788;20.486;2022-11-27T05:30:40;179.40;2252.80
54946;DHT22;40846;44.788;20.486;2022-11-27T05:33:05;179.80;2252.80
54946;DHT22;40846;44.788;20.486;2022-11-27T05:35:32;179.80;2252.80
54946;DHT22;40846;44.788;20.486;2022-11-27T05:37:57;179.60;2252.80
54946;DHT22;40846;44.788;20.486;2022-11-27T05:40:23;179.30;2252.80
54946;DHT22;40846;44.788;20.486;2022-11-27T05:42:49;154.50;2252.80
54946;DHT22;40846;44.788;20.486;2022-11-27T05:45:14;154.50;2252.80
54946;DHT22;40846;44.788;20.486;2022-11-27T05:54:59;179.40;2252.80
54946;DHT22;40846;44.788;20.486;2022-11-27T05:57:24;179.20;2252.80
54946;DHT22;40846;44.788;20.486;2022-11-27T06:02:17;179.40;2252.80
54946;DHT22;40846;44.788;20.486;2022-11-27T06:04:42;179.30;2252.80
54946;DHT22;40846;44.788;20.486;2022-11-27T06:07:08;154.50;2252.80
54946;DHT22;40846;44.788;20.486;2022-11-27T06:09:36;154.40;2252.80
54946;DHT22;40846;44.788;20.486;2022-11-27T06:12:02;154.50;2252.80
54946;DHT22;40846;44.788;20.486;2022-11-27T06:16:56;179.40;2252.80
54946;DHT22;40846;44.788;20.486;2022-11-27T06:19:22;154.50;2252.80
54946;DHT22;40846;44.788;20.486;2022-11-27T06:26:40;154.50;2252.80
54946;DHT22;40846;44.788;20.486;2022-11-27T06:33:59;154.20;2252.80
54946;DHT22;40846;44.788;20.486;2022-11-27T06:36:34;153.80;2252.80
54946;DHT22;40846;44.788;20.486;2022-11-27T06:39:01;153.70;2252.80
54946;DHT22;40846;44.788;20.486;2022-11-27T06:41:27;153.60;2252.80
54946;DHT22;40846;44.788;20.486;2022-11-27T06:43:53;128.90;2252.80
54946;DHT22;40846;44.788;20.486;2022-11-27T06:46:21;128.90;2252.80
54946;DHT22;40846;44.788;20.486;2022-11-27T06:48:50;128.90;2252.80
54946;DHT22;40846;44.788;20.486;2022-11-27T06:51:18;128.80;2252.80
54946;DHT22;40846;44.788;20.486;2022-11-27T06:53:44;128.90;2252.80
54946;DHT22;40846;44.788;20.486;2022-11-27T06:56:13;128.80;2252.80
54946;DHT22;40846;44.788;20.486;2022-11-27T06:58:39;128.80;2252.80
54946;DHT22;40846;44.788;20.486;2022-11-27T07:01:08;128.90;2252.80
54946;DHT22;40846;44.788;20.486;2022-11-27T07:03:34;128.90;2252.80
54946;DHT22;40846;44.788;20.486;2022-11-27T07:06:04;128.80;2252.80
54946;DHT22;40846;44.788;20.486;2022-11-27T07:08:31;128.80;2252.80
54946;DHT22;40846;44.788;20.486;2022-11-27T07:11:09;128.90;2252.80
54946;DHT22;40846;44.788;20.486;2022-11-27T07:13:35;128.90;2252.80
54946;DHT22;40846;44.788;20.486;2022-11-27T07:16:03;128.90;2252.80
54946;DHT22;40846;44.788;20.486;2022-11-27T07:18:33;128.90;2252.80
54946;DHT22;40846;44.788;20.486;2022-11-27T07:20:59;128.90;2252.80
54946;DHT22;40846;44.788;20.486;2022-11-27T07:23:24;128.90;2252.80
54946;DHT22;40846;44.788;20.486;2022-11-27T07:25:50;128.80;2252.80
54946;DHT22;40846;44.788;20.486;2022-11-27T07:28:16;128.90;2252.80
54946;DHT22;40846;44.788;20.486;2022-11-27T07:30:41;128.90;2252.80
54946;DHT22;40846;44.788;20.486;2022-11-27T07:33:07;128.80;2252.80
54946;DHT22;40846;44.788;20.486;2022-11-27T07:35:33;128.90;2252.80
54946;DHT22;40846;44.788;20.486;2022-11-27T07:37:59;128.70;2252.80
54946;DHT22;40846;44.788;20.486;2022-11-27T07:40:24;128.60;2252.80
54946;DHT22;40846;44.788;20.486;2022-11-27T07:42:50;128.60;2252.80
54946;DHT22;40846;44.788;20.486;2022-11-27T07:45:16;128.60;2252.80
54946;DHT22;40846;44.788;20.486;2022-11-27T07:47:41;128.40;2252.80
54946;DHT22;40846;44.788;20.486;2022-11-27T07:50:08;128.50;2252.80
54946;DHT22;40846;44.788;20.486;2022-11-27T07:52:35;128.40;2252.80
54946;DHT22;40846;44.788;20.486;2022-11-27T07:55:01;128.30;2252.80
54946;DHT22;40846;44.788;20.486;2022-11-27T07:57:27;128.40;2252.80
54946;DHT22;40846;44.788;20.486;2022-11-27T07:59:53;128.30;2252.80
54946;DHT22;40846;44.788;20.486;2022-11-27T08:02:18;128.20;2252.80
54946;DHT22;40846;44.788;20.486;2022-11-27T08:04:44;128.30;2252.80
54946;DHT22;40846;44.788;20.486;2022-11-27T08:07:10;128.20;2252.80
54946;DHT22;40846;44.788;20.486;2022-11-27T08:09:36;128.10;2252.80
54946;DHT22;40846;44.788;20.486;2022-11-27T08:12:04;128.30;2252.80
54946;DHT22;40846;44.788;20.486;2022-11-27T08:14:30;128.40;2252.80
54946;DHT22;40846;44.788;20.486;2022-11-27T08:16:56;128.60;2252.80
54946;DHT22;40846;44.788;20.486;2022-11-27T08:19:22;128.90;2252.80
54946;DHT22;40846;44.788;20.486;2022-11-27T08:21:48;153.60;2252.80
54946;DHT22;40846;44.788;20.486;2022-11-27T08:24:14;153.80;2252.80
54946;DHT22;40846;44.788;20.486;2022-11-27T08:26:39;153.90;2252.80
54946;DHT22;40846;44.788;20.486;2022-11-27T08:29:05;153.90;2252.80
54946;DHT22;40846;44.788;20.486;2022-11-27T08:31:31;153.90;2252.80
54946;DHT22;40846;44.788;20.486;2022-11-27T08:33:58;154.00;2252.80
54946;DHT22;40846;44.788;20.486;2022-11-27T08:36:25;154.10;2252.80
54946;DHT22;40846;44.788;20.486;2022-11-27T08:38:51;154.20;2252.80
54946;DHT22;40846;44.788;20.486;2022-11-27T08:41:17;154.20;2252.80
54946;DHT22;40846;44.788;20.486;2022-11-27T08:43:43;154.30;2252.80
54946;DHT22;40846;44.788;20.486;2022-11-27T08:46:08;154.50;2252.80
54946;DHT22;40846;44.788;20.486;2022-11-27T08:48:35;179.30;2252.80
54946;DHT22;40846;44.788;20.486;2022-11-27T09:52:47;154.20;2252.80
54946;DHT22;40846;44.788;20.486;2022-11-27T09:58:17;154.10;2252.80
54946;DHT22;40846;44.788;20.486;2022-11-27T10:00:44;154.30;2252.80
54946;DHT22;40846;44.788;20.486;2022-11-27T10:03:13;154.20;2252.80
54946;DHT22;40846;44.788;20.486;2022-11-27T10:09:21;154.10;2252.80
54946;DHT22;40846;44.788;20.486;2022-11-27T10:14:57;154.00;2252.80
54946;DHT22;40846;44.788;20.486;2022-11-27T10:17:38;154.10;2252.80
54946;DHT22;40846;44.788;20.486;2022-11-27T10:25:52;179.50;2252.80
54946;DHT22;40846;44.788;20.486;2022-11-27T10:28:54;179.30;2252.80
54946;DHT22;40846;44.788;20.486;2022-11-27T11:34:25;179.40;2252.80
54946;DHT22;40846;44.788;20.486;2022-11-27T11:37:03;154.50;2252.80
54946;DHT22;40846;44.788;20.486;2022-11-27T11:39:45;179.40;2252.80
54946;DHT22;40846;44.788;20.486;2022-11-27T12:29:51;180.10;2252.80
54946;DHT22;40846;44.788;20.486;2022-11-27T15:42:41;180.10;2252.80
54946;DHT22;40846;44.788;20.486;2022-11-27T15:45:08;179.80;2252.80
54946;DHT22;40846;44.788;20.486;2022-11-27T15:47:35;179.60;2252.80
54946;DHT22;40846;44.788;20.486;2022-11-27T15:50:02;179.50;2252.80
54946;DHT22;40846;44.788;20.486;2022-11-27T15:52:28;179.50;2252.80
54946;DHT22;40846;44.788;20.486;2022-11-27T15:54:54;179.50;2252.80
54946;DHT22;40846;44.788;20.486;2022-11-27T15:57:21;179.50;2252.80
54946;DHT22;40846;44.788;20.486;2022-11-27T15:59:47;179.40;2252.80
54946;DHT22;40846;44.788;20.486;2022-11-27T16:02:13;179.30;2252.80
54946;DHT22;40846;44.788;20.486;2022-11-27T16:04:39;179.40;2252.80
54946;DHT22;40846;44.788;20.486;2022-11-27T16:07:05;179.50;2252.80
54946;DHT22;40846;44.788;20.486;2022-11-27T16:09:32;179.50;2252.80
54946;DHT22;40846;44.788;20.486;2022-11-27T16:12:01;179.30;2252.80
54946;DHT22;40846;44.788;20.486;2022-11-27T16:14:29;179.50;2252.80
54946;DHT22;40846;44.788;20.486;2022-11-27T16:16:55;179.40;2252.80
54946;DHT22;40846;44.788;20.486;2022-11-27T16:19:21;179.20;2252.80
54946;DHT22;40846;44.788;20.486;2022-11-27T16:21:47;179.40;2252.80
54946;DHT22;40846;44.788;20.486;2022-11-27T16:24:13;179.40;2252.80
54946;DHT22;40846;44.788;20.486;2022-11-27T16:26:40;179.20;2252.80
54946;DHT22;40846;44.788;20.486;2022-11-27T16:29:06;179.20;2252.80
54946;DHT22;40846;44.788;20.486;2022-11-27T16:31:32;179.30;2252.80
54946;DHT22;40846;44.788;20.486;2022-11-27T16:33:58;179.40;2252.80
54946;DHT22;40846;44.788;20.486;2022-11-27T16:36:26;179.40;2252.80
54946;DHT22;40846;44.788;20.486;2022-11-27T16:38:53;179.40;2252.80
54946;DHT22;40846;44.788;20.486;2022-11-27T16:41:20;179.30;2252.80
54946;DHT22;40846;44.788;20.486;2022-11-27T16:43:51;179.40;2252.80
54946;DHT22;40846;44.788;20.486;2022-11-27T16:46:36;179.30;2252.80
54946;DHT22;40846;44.788;20.486;2022-11-27T16:49:04;179.30;2252.80
54946;DHT22;40846;44.788;20.486;2022-11-27T16:51:34;179.30;2252.80
54946;DHT22;40846;44.788;20.486;2022-11-27T16:54:03;179.30;2252.80
54946;DHT22;40846;44.788;20.486;2022-11-27T16:56:30;179.40;2252.80
54946;DHT22;40846;44.788;20.486;2022-11-27T16:58:57;179.40;2252.80
54946;DHT22;40846;44.788;20.486;2022-11-27T17:01:25;179.40;2252.80
54946;DHT22;40846;44.788;20.486;2022-11-27T17:03:51;179.40;2252.80
54946;DHT22;40846;44.788;20.486;2022-11-27T17:06:26;179.50;2252.80
54946;DHT22;40846;44.788;20.486;2022-11-27T17:08:53;179.50;2252.80
54946;DHT22;40846;44.788;20.486;2022-11-27T17:11:21;179.50;2252.80
54946;DHT22;40846;44.788;20.486;2022-11-27T17:13:50;179.60;2252.80
54946;DHT22;40846;44.788;20.486;2022-11-27T17:16:17;179.60;2252.80
54946;DHT22;40846;44.788;20.486;2022-11-27T17:18:43;179.50;2252.80
54946;DHT22;40846;44.788;20.486;2022-11-27T17:21:31;179.50;2252.80
54946;DHT22;40846;44.788;20.486;2022-11-27T17:24:04;179.40;2252.80
54946;DHT22;40846;44.788;20.486;2022-11-27T17:26:31;179.40;2252.80
54946;DHT22;40846;44.788;20.486;2022-11-27T17:28:57;179.50;2252.80
54946;DHT22;40846;44.788;20.486;2022-11-27T17:31:25;179.50;2252.80
54946;DHT22;40846;44.788;20.486;2022-11-27T17:33:53;179.50;2252.80
54946;DHT22;40846;44.788;20.486;2022-11-27T17:36:21;179.50;2252.80
54946;DHT22;40846;44.788;20.486;2022-11-27T17:38:47;179.60;2252.80
54946;DHT22;40846;44.788;20.486;2022-11-27T17:41:13;179.70;2252.80
54946;DHT22;40846;44.788;20.486;2022-11-27T17:43:40;179.50;2252.80
54946;DHT22;40846;44.788;20.486;2022-11-27T17:46:07;179.50;2252.80
54946;DHT22;40846;44.788;20.486;2022-11-27T17:48:34;179.50;2252.80
54946;DHT22;40846;44.788;20.486;2022-11-27T17:51:00;179.50;2252.80
54946;DHT22;40846;44.788;20.486;2022-11-27T17:53:25;179.50;2252.80
54946;DHT22;40846;44.788;20.486;2022-11-27T17:55:51;179.60;2252.80
54946;DHT22;40846;44.788;20.486;2022-11-27T17:58:19;179.60;2252.80
54946;DHT22;40846;44.788;20.486;2022-11-27T18:00:45;179.60;2252.80
54946;DHT22;40846;44.788;20.486;2022-11-27T18:03:11;179.60;2252.80
54946;DHT22;40846;44.788;20.486;2022-11-27T18:05:37;179.70;2252.80
54946;DHT22;40846;44.788;20.486;2022-11-27T18:08:04;179.70;2252.80
54946;DHT22;40846;44.788;20.486;2022-11-27T18:10:31;179.70;2252.80
54946;DHT22;40846;44.788;20.486;2022-11-27T18:12:57;179.70;2252.80
54946;DHT22;40846;44.788;20.486;2022-11-27T18:15:23;179.70;2252.80
54946;DHT22;40846;44.788;20.486;2022-11-27T18:17:48;179.60;2252.80
54946;DHT22;40846;44.788;20.486;2022-11-27T18:20:14;179.60;2252.80
54946;DHT22;40846;44.788;20.486;2022-11-27T18:22:40;179.60;2252.80
54946;DHT22;40846;44.788;20.486;2022-11-27T18:25:06;179.60;2252.80
54946;DHT22;40846;44.788;20.486;2022-11-27T18:27:32;179.60;2252.80
54946;DHT22;40846;44.788;20.486;2022-11-27T18:29:58;179.60;2252.80
54946;DHT22;40846;44.788;20.486;2022-11-27T18:32:24;179.50;2252.80
54946;DHT22;40846;44.788;20.486;2022-11-27T18:34:51;179.40;2252.80
54946;DHT22;40846;44.788;20.486;2022-11-27T18:37:18;179.50;2252.80
54946;DHT22;40846;44.788;20.486;2022-11-27T18:39:44;179.50;2252.80
54946;DHT22;40846;44.788;20.486;2022-11-27T18:42:12;179.60;2252.80
54946;DHT22;40846;44.788;20.486;2022-11-27T18:44:38;179.60;2252.80
54946;DHT22;40846;44.788;20.486;2022-11-27T18:47:04;179.60;2252.80
54946;DHT22;40846;44.788;20.486;2022-11-27T18:49:35;179.60;2252.80
54946;DHT22;40846;44.788;20.486;2022-11-27T18:52:00;179.60;2252.80
54946;DHT22;40846;44.788;20.486;2022-11-27T18:54:26;179.60;2252.80
54946;DHT22;40846;44.788;20.486;2022-11-27T18:56:52;179.40;2252.80
54946;DHT22;40846;44.788;20.486;2022-11-27T18:59:17;179.50;2252.80
54946;DHT22;40846;44.788;20.486;2022-11-27T19:01:44;179.40;2252.80
54946;DHT22;40846;44.788;20.486;2022-11-27T19:04:10;179.30;2252.80
54946;DHT22;40846;44.788;20.486;2022-11-27T19:06:37;179.30;2252.80
54946;DHT22;40846;44.788;20.486;2022-11-27T19:09:04;179.30;2252.80
54946;DHT22;40846;44.788;20.486;2022-11-27T19:11:30;179.30;2252.80
54946;DHT22;40846;44.788;20.486;2022-11-27T19:13:57;179.30;2252.80
54946;DHT22;40846;44.788;20.486;2022-11-27T19:16:29;154.50;2252.80
54946;DHT22;40846;44.788;20.486;2022-11-27T21:46:19;154.20;2252.80
54946;DHT22;40846;44.788;20.486;2022-11-27T21:53:41;154.20;2252.80
54946;DHT22;40846;44.788;20.486;2022-11-27T21:56:09;154.00;2252.80
54946;DHT22;40846;44.788;20.486;2022-11-27T21:58:36;154.00;2252.80
54946;DHT22;40846;44.788;20.486;2022-11-27T22:01:04;153.80;2252.80
54946;DHT22;40846;44.788;20.486;2022-11-27T22:03:31;153.70;2252.80
54946;DHT22;40846;44.788;20.486;2022-11-27T22:06:08;153.70;2252.80
54946;DHT22;40846;44.788;20.486;2022-11-27T22:08:35;153.80;2252.80
54946;DHT22;40846;44.788;20.486;2022-11-27T22:11:05;153.90;2252.80
54946;DHT22;40846;44.788;20.486;2022-11-27T22:13:31;153.90;2252.80
54946;DHT22;40846;44.788;20.486;2022-11-27T22:15:57;154.00;2252.80
54946;DHT22;40846;44.788;20.486;2022-11-27T22:18:22;153.90;2252.80
54946;DHT22;40846;44.788;20.486;2022-11-27T22:20:48;153.70;2252.80
54946;DHT22;40846;44.788;20.486;2022-11-27T22:23:14;153.60;2252.80
54946;DHT22;40846;44.788;20.486;2022-11-27T22:25:40;153.60;2252.80
54946;DHT22;40846;44.788;20.486;2022-11-27T22:28:06;153.60;2252.80
54946;DHT22;40846;44.788;20.486;2022-11-27T22:30:31;153.70;2252.80
54946;DHT22;40846;44.788;20.486;2022-11-27T22:32:57;153.80;2252.80
54946;DHT22;40846;44.788;20.486;2022-11-27T22:35:24;153.90;2252.80
54946;DHT22;40846;44.788;20.486;2022-11-27T22:37:53;154.00;2252.80
54946;DHT22;40846;44.788;20.486;2022-11-27T22:40:21;154.00;2252.80
54946;DHT22;40846;44.788;20.486;2022-11-27T22:42:47;154.00;2252.80
54946;DHT22;40846;44.788;20.486;2022-11-27T22:45:13;154.00;2252.80
54946;DHT22;40846;44.788;20.486;2022-11-27T22:47:38;154.10;2252.80
54946;DHT22;40846;44.788;20.486;2022-11-27T22:50:05;154.20;2252.80
54946;DHT22;40846;44.788;20.486;2022-11-27T22:52:31;154.20;2252.80
54946;DHT22;40846;44.788;20.486;2022-11-27T22:59:50;179.30;2252.80
54946;DHT22;40846;44.788;20.486;2022-11-27T23:07:08;179.40;2252.80
54946;DHT22;40846;44.788;20.486;2022-11-27T23:09:35;154.40;2252.80
54946;DHT22;40846;44.788;20.486;2022-11-27T23:12:00;154.40;2252.80
54946;DHT22;40846;44.788;20.486;2022-11-27T23:14:26;154.30;2252.80
54946;DHT22;40846;44.788;20.486;2022-11-27T23:16:52;154.40;2252.80
54946;DHT22;40846;44.788;20.486;2022-11-27T23:19:18;154.40;2252.80
54946;DHT22;40846;44.788;20.486;2022-11-27T23:21:43;154.30;2252.80
54946;DHT22;40846;44.788;20.486;2022-11-27T23:24:11;154.40;2252.80
54946;DHT22;40846;44.788;20.486;2022-11-27T23:26:38;154.30;2252.80
54946;DHT22;40846;44.788;20.486;2022-11-27T23:29:04;154.30;2252.80
54946;DHT22;40846;44.788;20.486;2022-11-27T23:34:03;154.10;2252.80
54946;DHT22;40846;44.788;20.486;2022-11-27T23:36:30;153.80;2252.80
54946;DHT22;40846;44.788;20.486;2022-11-27T23:38:58;128.90;2252.80
54946;DHT22;40846;44.788;20.486;2022-11-27T23:41:26;128.80;2252.80
54946;DHT22;40846;44.788;20.486;2022-11-27T23:43:52;128.90;2252.80
54946;DHT22;40846;44.788;20.486;2022-11-27T23:46:21;128.70;2252.80
54946;DHT22;40846;44.788;20.486;2022-11-27T23:48:47;128.90;2252.80
54946;DHT22;40846;44.788;20.486;2022-11-27T23:51:20;128.90;2252.80
54946;DHT22;40846;44.788;20.486;2022-11-27T23:53:48;128.80;2252.80
54946;DHT22;40846;44.788;20.486;2022-11-27T23:56:19;128.80;2252.80
54946;DHT22;40846;44.788;20.486;2022-11-27T23:58:45;128.70;2252.80
